sensor_id;sensor_type;location;lat;lon;timestamp;temperature;humidity
68493;HTU21D;55483;51.106;5.984;2023-09-19T00:02:17;17.22;91.50
68493;HTU21D;55483;51.106;5.984;2023-09-19T00:04:43;17.20;91.59
68493;HTU21D;55483;51.106;5.984;2023-09-19T00:07:09;17.19;91.72
68493;HTU21D;55483;51.106;5.984;2023-09-19T00:09:34;17.15;91.74
68493;HTU21D;55483;51.106;5.984;2023-09-19T00:12:06;17.11;92.01
68493;HTU21D;55483;51.106;5.984;2023-09-19T00:14:35;17.09;91.96
68493;HTU21D;55483;51.106;5.984;2023-09-19T00:17:02;17.07;92.21
68493;HTU21D;55483;51.106;5.984;2023-09-19T00:19:34;17.05;92.21
68493;HTU21D;55483;51.106;5.984;2023-09-19T00:22:00;17.04;92.24
68493;HTU21D;55483;51.106;5.984;2023-09-19T00:24:26;17.00;92.28
68493;HTU21D;55483;51.106;5.984;2023-09-19T00:26:53;16.99;92.63
68493;HTU21D;55483;51.106;5.984;2023-09-19T00:29:21;16.96;92.79
68493;HTU21D;55483;51.106;5.984;2023-09-19T00:31:46;16.94;93.11
68493;HTU21D;55483;51.106;5.984;2023-09-19T00:34:12;16.92;93.28
68493;HTU21D;55483;51.106;5.984;2023-09-19T00:36:38;16.89;93.43
68493;HTU21D;55483;51.106;5.984;2023-09-19T00:39:08;16.85;93.65
68493;HTU21D;55483;51.106;5.984;2023-09-19T00:41:34;16.84;94.00
68493;HTU21D;55483;51.106;5.984;2023-09-19T00:44:04;16.80;94.20
68493;HTU21D;55483;51.106;5.984;2023-09-19T00:46:30;16.78;94.43
68493;HTU21D;55483;51.106;5.984;2023-09-19T00:48:58;16.76;94.53
68493;HTU21D;55483;51.106;5.984;2023-09-19T00:51:26;16.74;94.78
68493;HTU21D;55483;51.106;5.984;2023-09-19T00:53:53;16.71;95.05
68493;HTU21D;55483;51.106;5.984;2023-09-19T00:56:19;16.73;95.07
68493;HTU21D;55483;51.106;5.984;2023-09-19T00:58:47;16.72;95.14
68493;HTU21D;55483;51.106;5.984;2023-09-19T01:01:13;16.71;95.44
68493;HTU21D;55483;51.106;5.984;2023-09-19T01:03:44;16.71;95.37
68493;HTU21D;55483;51.106;5.984;2023-09-19T01:06:09;16.72;95.33
68493;HTU21D;55483;51.106;5.984;2023-09-19T01:08:38;16.70;95.51
68493;HTU21D;55483;51.106;5.984;2023-09-19T01:11:20;16.66;95.86
68493;HTU21D;55483;51.106;5.984;2023-09-19T01:13:59;16.67;95.87
68493;HTU21D;55483;51.106;5.984;2023-09-19T01:16:38;16.69;96.02
68493;HTU21D;55483;51.106;5.984;2023-09-19T01:19:26;16.67;96.13
68493;HTU21D;55483;51.106;5.984;2023-09-19T01:22:16;16.67;96.32
68493;HTU21D;55483;51.106;5.984;2023-09-19T01:30:40;16.69;96.17
68493;HTU21D;55483;51.106;5.984;2023-09-19T01:33:08;16.69;95.83
68493;HTU21D;55483;51.106;5.984;2023-09-19T01:35:38;16.70;95.74
68493;HTU21D;55483;51.106;5.984;2023-09-19T01:38:05;16.69;95.47
68493;HTU21D;55483;51.106;5.984;2023-09-19T01:40:41;16.65;95.16
68493;HTU21D;55483;51.106;5.984;2023-09-19T01:43:24;16.66;94.83
68493;HTU21D;55483;51.106;5.984;2023-09-19T01:46:09;16.64;94.32
68493;HTU21D;55483;51.106;5.984;2023-09-19T01:54:18;16.61;94.46
68493;HTU21D;55483;51.106;5.984;2023-09-19T01:56:59;16.60;94.72
68493;HTU21D;55483;51.106;5.984;2023-09-19T01:59:36;16.58;95.00
68493;HTU21D;55483;51.106;5.984;2023-09-19T02:02:05;16.56;95.15
68493;HTU21D;55483;51.106;5.984;2023-09-19T02:04:35;16.50;95.46
68493;HTU21D;55483;51.106;5.984;2023-09-19T02:07:01;16.47;95.62
68493;HTU21D;55483;51.106;5.984;2023-09-19T02:09:28;16.48;95.41
68493;HTU21D;55483;51.106;5.984;2023-09-19T02:11:53;16.48;95.43
68493;HTU21D;55483;51.106;5.984;2023-09-19T02:14:21;16.47;95.09
68493;HTU21D;55483;51.106;5.984;2023-09-19T02:16:47;16.45;95.07
68493;HTU21D;55483;51.106;5.984;2023-09-19T02:19:15;16.45;94.91
68493;HTU21D;55483;51.106;5.984;2023-09-19T02:21:42;16.43;94.80
68493;HTU21D;55483;51.106;5.984;2023-09-19T02:24:08;16.43;94.68
68493;HTU21D;55483;51.106;5.984;2023-09-19T02:26:33;16.44;94.48
68493;HTU21D;55483;51.106;5.984;2023-09-19T02:29:01;16.41;94.56
68493;HTU21D;55483;51.106;5.984;2023-09-19T02:31:28;16.41;94.53
68493;HTU21D;55483;51.106;5.984;2023-09-19T02:33:54;16.40;94.53
68493;HTU21D;55483;51.106;5.984;2023-09-19T02:36:21;16.37;94.48
68493;HTU21D;55483;51.106;5.984;2023-09-19T02:38:46;16.40;94.54
68493;HTU21D;55483;51.106;5.984;2023-09-19T02:41:12;16.39;94.78
68493;HTU21D;55483;51.106;5.984;2023-09-19T02:43:37;16.35;94.78
68493;HTU21D;55483;51.106;5.984;2023-09-19T02:46:04;16.34;95.04
68493;HTU21D;55483;51.106;5.984;2023-09-19T02:48:29;16.34;94.98
68493;HTU21D;55483;51.106;5.984;2023-09-19T02:50:55;16.32;94.88
68493;HTU21D;55483;51.106;5.984;2023-09-19T02:53:20;16.28;95.07
68493;HTU21D;55483;51.106;5.984;2023-09-19T02:55:46;16.28;94.98
68493;HTU21D;55483;51.106;5.984;2023-09-19T02:58:12;16.27;94.72
68493;HTU21D;55483;51.106;5.984;2023-09-19T03:00:40;16.28;94.71
68493;HTU21D;55483;51.106;5.984;2023-09-19T03:03:08;16.24;94.75
68493;HTU21D;55483;51.106;5.984;2023-09-19T03:05:34;16.26;94.68
68493;HTU21D;55483;51.106;5.984;2023-09-19T03:08:00;16.22;94.85
68493;HTU21D;55483;51.106;5.984;2023-09-19T03:10:27;16.22;94.82
68493;HTU21D;55483;51.106;5.984;2023-09-19T03:12:54;16.22;94.69
68493;HTU21D;55483;51.106;5.984;2023-09-19T03:15:20;16.22;94.52
68493;HTU21D;55483;51.106;5.984;2023-09-19T03:17:49;16.25;94.35
68493;HTU21D;55483;51.106;5.984;2023-09-19T03:20:19;16.21;94.46
68493;HTU21D;55483;51.106;5.984;2023-09-19T03:22:47;16.25;94.40
68493;HTU21D;55483;51.106;5.984;2023-09-19T03:25:13;16.19;94.46
68493;HTU21D;55483;51.106;5.984;2023-09-19T03:27:40;16.19;94.52
68493;HTU21D;55483;51.106;5.984;2023-09-19T03:30:07;16.22;94.54
68493;HTU21D;55483;51.106;5.984;2023-09-19T03:32:47;16.20;94.61
68493;HTU21D;55483;51.106;5.984;2023-09-19T03:35:16;16.26;94.33
68493;HTU21D;55483;51.106;5.984;2023-09-19T03:37:43;16.25;94.45
68493;HTU21D;55483;51.106;5.984;2023-09-19T03:40:10;16.25;94.50
68493;HTU21D;55483;51.106;5.984;2023-09-19T03:42:40;16.26;94.52
68493;HTU21D;55483;51.106;5.984;2023-09-19T03:45:10;16.27;94.57
68493;HTU21D;55483;51.106;5.984;2023-09-19T03:47:39;16.26;94.65
68493;HTU21D;55483;51.106;5.984;2023-09-19T03:50:06;16.24;94.88
68493;HTU21D;55483;51.106;5.984;2023-09-19T03:52:34;16.22;94.95
68493;HTU21D;55483;51.106;5.984;2023-09-19T03:55:00;16.24;94.86
68493;HTU21D;55483;51.106;5.984;2023-09-19T03:57:28;16.21;94.78
68493;HTU21D;55483;51.106;5.984;2023-09-19T03:59:53;16.21;94.78
68493;HTU21D;55483;51.106;5.984;2023-09-19T04:02:20;16.18;94.79
68493;HTU21D;55483;51.106;5.984;2023-09-19T04:04:50;16.19;94.52
68493;HTU21D;55483;51.106;5.984;2023-09-19T04:07:16;16.17;94.63
68493;HTU21D;55483;51.106;5.984;2023-09-19T04:09:42;16.16;94.33
68493;HTU21D;55483;51.106;5.984;2023-09-19T04:12:07;16.17;94.08
68493;HTU21D;55483;51.106;5.984;2023-09-19T04:14:36;16.19;93.69
68493;HTU21D;55483;51.106;5.984;2023-09-19T04:17:02;16.15;93.55
68493;HTU21D;55483;51.106;5.984;2023-09-19T04:19:28;16.14;93.40
68493;HTU21D;55483;51.106;5.984;2023-09-19T04:21:54;16.15;93.32
68493;HTU21D;55483;51.106;5.984;2023-09-19T04:24:19;16.19;92.98
68493;HTU21D;55483;51.106;5.984;2023-09-19T04:26:45;16.26;92.47
68493;HTU21D;55483;51.106;5.984;2023-09-19T04:29:11;16.30;91.75
68493;HTU21D;55483;51.106;5.984;2023-09-19T04:31:39;16.32;91.13
68493;HTU21D;55483;51.106;5.984;2023-09-19T04:34:06;16.39;90.50
68493;HTU21D;55483;51.106;5.984;2023-09-19T04:36:32;16.43;89.84
68493;HTU21D;55483;51.106;5.984;2023-09-19T04:38:57;16.43;89.67
68493;HTU21D;55483;51.106;5.984;2023-09-19T04:41:23;16.42;89.47
68493;HTU21D;55483;51.106;5.984;2023-09-19T04:43:48;16.45;89.09
68493;HTU21D;55483;51.106;5.984;2023-09-19T04:46:16;16.47;88.67
68493;HTU21D;55483;51.106;5.984;2023-09-19T04:48:43;16.49;88.41
68493;HTU21D;55483;51.106;5.984;2023-09-19T04:51:08;16.52;88.22
68493;HTU21D;55483;51.106;5.984;2023-09-19T04:53:35;16.51;88.03
68493;HTU21D;55483;51.106;5.984;2023-09-19T04:56:01;16.55;87.96
68493;HTU21D;55483;51.106;5.984;2023-09-19T04:58:29;16.57;87.94
68493;HTU21D;55483;51.106;5.984;2023-09-19T05:00:55;16.50;87.96
68493;HTU21D;55483;51.106;5.984;2023-09-19T05:03:21;16.49;87.83
68493;HTU21D;55483;51.106;5.984;2023-09-19T05:05:47;16.46;87.67
68493;HTU21D;55483;51.106;5.984;2023-09-19T05:08:14;16.47;88.10
68493;HTU21D;55483;51.106;5.984;2023-09-19T05:10:40;16.48;88.18
68493;HTU21D;55483;51.106;5.984;2023-09-19T05:13:06;16.51;88.18
68493;HTU21D;55483;51.106;5.984;2023-09-19T05:15:33;16.52;88.43
68493;HTU21D;55483;51.106;5.984;2023-09-19T05:17:59;16.51;88.35
68493;HTU21D;55483;51.106;5.984;2023-09-19T05:20:25;16.51;88.45
68493;HTU21D;55483;51.106;5.984;2023-09-19T05:23:06;16.52;88.57
68493;HTU21D;55483;51.106;5.984;2023-09-19T05:25:35;16.52;88.69
68493;HTU21D;55483;51.106;5.984;2023-09-19T05:28:09;16.55;88.71
68493;HTU21D;55483;51.106;5.984;2023-09-19T05:30:37;16.56;88.88
68493;HTU21D;55483;51.106;5.984;2023-09-19T05:33:07;16.60;88.99
68493;HTU21D;55483;51.106;5.984;2023-09-19T05:35:33;16.58;89.03
68493;HTU21D;55483;51.106;5.984;2023-09-19T05:37:59;16.60;89.12
68493;HTU21D;55483;51.106;5.984;2023-09-19T05:40:25;16.58;89.16
68493;HTU21D;55483;51.106;5.984;2023-09-19T05:42:51;16.54;89.57
68493;HTU21D;55483;51.106;5.984;2023-09-19T05:45:17;16.50;90.06
68493;HTU21D;55483;51.106;5.984;2023-09-19T05:47:52;16.54;90.12
68493;HTU21D;55483;51.106;5.984;2023-09-19T05:50:21;16.58;90.18
68493;HTU21D;55483;51.106;5.984;2023-09-19T05:52:54;16.61;90.36
68493;HTU21D;55483;51.106;5.984;2023-09-19T05:55:22;16.64;90.28
68493;HTU21D;55483;51.106;5.984;2023-09-19T05:57:53;16.67;90.10
68493;HTU21D;55483;51.106;5.984;2023-09-19T06:00:19;16.67;90.11
68493;HTU21D;55483;51.106;5.984;2023-09-19T06:02:56;16.67;90.12
68493;HTU21D;55483;51.106;5.984;2023-09-19T06:05:25;16.67;89.99
68493;HTU21D;55483;51.106;5.984;2023-09-19T06:07:57;16.62;90.24
68493;HTU21D;55483;51.106;5.984;2023-09-19T06:10:26;16.62;90.35
68493;HTU21D;55483;51.106;5.984;2023-09-19T06:12:53;16.62;90.40
68493;HTU21D;55483;51.106;5.984;2023-09-19T06:15:20;16.63;90.26
68493;HTU21D;55483;51.106;5.984;2023-09-19T06:17:52;16.64;90.41
68493;HTU21D;55483;51.106;5.984;2023-09-19T06:20:21;16.69;90.28
68493;HTU21D;55483;51.106;5.984;2023-09-19T06:22:47;16.71;90.22
68493;HTU21D;55483;51.106;5.984;2023-09-19T06:25:15;16.73;90.24
68493;HTU21D;55483;51.106;5.984;2023-09-19T06:27:51;16.79;89.94
68493;HTU21D;55483;51.106;5.984;2023-09-19T06:30:21;16.85;89.60
68493;HTU21D;55483;51.106;5.984;2023-09-19T06:32:48;16.91;89.48
68493;HTU21D;55483;51.106;5.984;2023-09-19T06:35:15;16.96;89.47
68493;HTU21D;55483;51.106;5.984;2023-09-19T06:37:42;17.04;88.94
68493;HTU21D;55483;51.106;5.984;2023-09-19T06:40:13;17.00;89.02
68493;HTU21D;55483;51.106;5.984;2023-09-19T06:42:52;17.10;88.65
68493;HTU21D;55483;51.106;5.984;2023-09-19T06:45:21;17.14;88.60
68493;HTU21D;55483;51.106;5.984;2023-09-19T06:47:49;17.18;88.61
68493;HTU21D;55483;51.106;5.984;2023-09-19T06:50:16;17.28;88.06
68493;HTU21D;55483;51.106;5.984;2023-09-19T06:52:44;17.35;87.78
68493;HTU21D;55483;51.106;5.984;2023-09-19T06:55:10;17.41;87.32
68493;HTU21D;55483;51.106;5.984;2023-09-19T06:57:39;17.44;87.23
68493;HTU21D;55483;51.106;5.984;2023-09-19T07:00:12;17.49;86.58
68493;HTU21D;55483;51.106;5.984;2023-09-19T07:02:45;17.55;85.98
68493;HTU21D;55483;51.106;5.984;2023-09-19T07:05:10;17.58;86.07
68493;HTU21D;55483;51.106;5.984;2023-09-19T07:07:36;17.65;86.19
68493;HTU21D;55483;51.106;5.984;2023-09-19T07:10:03;17.68;85.29
68493;HTU21D;55483;51.106;5.984;2023-09-19T07:12:31;17.79;85.48
68493;HTU21D;55483;51.106;5.984;2023-09-19T07:14:58;17.89;84.93
68493;HTU21D;55483;51.106;5.984;2023-09-19T07:17:23;17.99;84.58
68493;HTU21D;55483;51.106;5.984;2023-09-19T07:19:49;18.07;84.55
68493;HTU21D;55483;51.106;5.984;2023-09-19T07:22:15;18.15;84.15
68493;HTU21D;55483;51.106;5.984;2023-09-19T07:24:41;18.20;83.82
68493;HTU21D;55483;51.106;5.984;2023-09-19T07:27:07;18.24;83.24
68493;HTU21D;55483;51.106;5.984;2023-09-19T07:29:32;18.37;82.94
68493;HTU21D;55483;51.106;5.984;2023-09-19T07:31:58;18.33;82.47
68493;HTU21D;55483;51.106;5.984;2023-09-19T07:34:23;18.38;82.48
68493;HTU21D;55483;51.106;5.984;2023-09-19T07:36:49;18.48;82.44
68493;HTU21D;55483;51.106;5.984;2023-09-19T07:39:15;18.56;82.02
68493;HTU21D;55483;51.106;5.984;2023-09-19T07:41:41;18.62;81.55
68493;HTU21D;55483;51.106;5.984;2023-09-19T07:44:07;18.74;81.26
68493;HTU21D;55483;51.106;5.984;2023-09-19T07:46:34;18.77;81.36
68493;HTU21D;55483;51.106;5.984;2023-09-19T07:48:59;18.87;80.14
68493;HTU21D;55483;51.106;5.984;2023-09-19T07:51:25;18.92;80.09
68493;HTU21D;55483;51.106;5.984;2023-09-19T07:53:52;18.95;79.97
68493;HTU21D;55483;51.106;5.984;2023-09-19T07:56:18;18.99;79.60
68493;HTU21D;55483;51.106;5.984;2023-09-19T07:58:46;19.15;79.68
68493;HTU21D;55483;51.106;5.984;2023-09-19T08:01:12;19.28;79.29
68493;HTU21D;55483;51.106;5.984;2023-09-19T08:03:38;19.42;78.74
68493;HTU21D;55483;51.106;5.984;2023-09-19T08:06:06;19.55;78.14
68493;HTU21D;55483;51.106;5.984;2023-09-19T08:08:33;19.62;77.24
68493;HTU21D;55483;51.106;5.984;2023-09-19T08:11:06;19.76;77.05
68493;HTU21D;55483;51.106;5.984;2023-09-19T08:13:41;19.84;76.28
68493;HTU21D;55483;51.106;5.984;2023-09-19T08:16:13;20.02;75.53
68493;HTU21D;55483;51.106;5.984;2023-09-19T08:18:40;20.28;74.86
68493;HTU21D;55483;51.106;5.984;2023-09-19T08:21:07;20.41;73.70
68493;HTU21D;55483;51.106;5.984;2023-09-19T08:23:36;20.39;73.37
68493;HTU21D;55483;51.106;5.984;2023-09-19T08:26:02;20.40;73.45
68493;HTU21D;55483;51.106;5.984;2023-09-19T08:28:35;20.57;73.01
68493;HTU21D;55483;51.106;5.984;2023-09-19T08:31:05;20.71;72.14
68493;HTU21D;55483;51.106;5.984;2023-09-19T08:33:32;20.84;71.90
68493;HTU21D;55483;51.106;5.984;2023-09-19T08:35:58;21.01;71.58
68493;HTU21D;55483;51.106;5.984;2023-09-19T08:38:23;21.17;71.26
68493;HTU21D;55483;51.106;5.984;2023-09-19T08:40:49;21.42;70.03
68493;HTU21D;55483;51.106;5.984;2023-09-19T08:43:15;21.54;69.27
68493;HTU21D;55483;51.106;5.984;2023-09-19T08:45:40;21.80;68.26
68493;HTU21D;55483;51.106;5.984;2023-09-19T08:51:03;22.17;66.97
68493;HTU21D;55483;51.106;5.984;2023-09-19T08:53:47;22.69;64.51
68493;HTU21D;55483;51.106;5.984;2023-09-19T08:56:18;23.03;62.49
68493;HTU21D;55483;51.106;5.984;2023-09-19T08:58:51;23.00;63.27
68493;HTU21D;55483;51.106;5.984;2023-09-19T09:01:21;23.26;62.26
68493;HTU21D;55483;51.106;5.984;2023-09-19T09:03:52;23.74;61.44
68493;HTU21D;55483;51.106;5.984;2023-09-19T09:06:19;24.21;58.56
68493;HTU21D;55483;51.106;5.984;2023-09-19T09:08:46;24.46;58.03
68493;HTU21D;55483;51.106;5.984;2023-09-19T09:11:15;24.62;57.31
68493;HTU21D;55483;51.106;5.984;2023-09-19T09:13:43;24.63;56.22
68493;HTU21D;55483;51.106;5.984;2023-09-19T09:16:10;24.64;56.16
68493;HTU21D;55483;51.106;5.984;2023-09-19T09:18:36;24.50;55.71
68493;HTU21D;55483;51.106;5.984;2023-09-19T09:21:03;24.41;56.64
68493;HTU21D;55483;51.106;5.984;2023-09-19T09:23:30;24.40;56.41
68493;HTU21D;55483;51.106;5.984;2023-09-19T09:25:58;24.50;56.38
68493;HTU21D;55483;51.106;5.984;2023-09-19T09:28:28;24.75;54.34
68493;HTU21D;55483;51.106;5.984;2023-09-19T09:30:55;24.80;54.49
68493;HTU21D;55483;51.106;5.984;2023-09-19T09:33:21;24.61;54.58
68493;HTU21D;55483;51.106;5.984;2023-09-19T09:38:21;25.05;53.98
68493;HTU21D;55483;51.106;5.984;2023-09-19T09:40:48;25.43;53.73
68493;HTU21D;55483;51.106;5.984;2023-09-19T09:43:37;26.17;52.52
68493;HTU21D;55483;51.106;5.984;2023-09-19T09:46:16;26.64;50.59
68493;HTU21D;55483;51.106;5.984;2023-09-19T09:51:50;26.65;47.60
68493;HTU21D;55483;51.106;5.984;2023-09-19T09:54:28;25.82;48.75
68493;HTU21D;55483;51.106;5.984;2023-09-19T09:57:11;25.12;50.12
68493;HTU21D;55483;51.106;5.984;2023-09-19T10:00:09;24.29;51.80
68493;HTU21D;55483;51.106;5.984;2023-09-19T10:02:42;23.88;53.27
68493;HTU21D;55483;51.106;5.984;2023-09-19T10:05:20;23.66;54.64
68493;HTU21D;55483;51.106;5.984;2023-09-19T10:07:50;23.82;55.50
68493;HTU21D;55483;51.106;5.984;2023-09-19T10:10:38;24.21;54.86
68493;HTU21D;55483;51.106;5.984;2023-09-19T10:13:05;24.32;54.04
68493;HTU21D;55483;51.106;5.984;2023-09-19T10:15:33;24.21;54.23
68493;HTU21D;55483;51.106;5.984;2023-09-19T10:18:05;24.18;54.37
68493;HTU21D;55483;51.106;5.984;2023-09-19T10:20:31;24.25;54.45
68493;HTU21D;55483;51.106;5.984;2023-09-19T10:23:07;24.23;54.01
68493;HTU21D;55483;51.106;5.984;2023-09-19T10:25:43;24.15;53.91
68493;HTU21D;55483;51.106;5.984;2023-09-19T10:28:11;23.89;53.76
68493;HTU21D;55483;51.106;5.984;2023-09-19T10:30:40;23.87;54.31
68493;HTU21D;55483;51.106;5.984;2023-09-19T10:33:10;23.96;53.61
68493;HTU21D;55483;51.106;5.984;2023-09-19T10:35:39;23.89;53.20
68493;HTU21D;55483;51.106;5.984;2023-09-19T10:38:06;23.95;53.42
68493;HTU21D;55483;51.106;5.984;2023-09-19T10:40:35;24.26;52.67
68493;HTU21D;55483;51.106;5.984;2023-09-19T10:43:03;24.60;52.35
68493;HTU21D;55483;51.106;5.984;2023-09-19T10:45:34;24.91;51.46
68493;HTU21D;55483;51.106;5.984;2023-09-19T10:48:02;25.14;50.27
68493;HTU21D;55483;51.106;5.984;2023-09-19T10:53:17;25.46;49.03
68493;HTU21D;55483;51.106;5.984;2023-09-19T10:56:01;25.78;48.02
68493;HTU21D;55483;51.106;5.984;2023-09-19T10:58:31;25.95;47.47
68493;HTU21D;55483;51.106;5.984;2023-09-19T11:01:00;26.30;47.12
68493;HTU21D;55483;51.106;5.984;2023-09-19T11:03:37;26.86;46.09
68493;HTU21D;55483;51.106;5.984;2023-09-19T11:06:17;27.58;43.15
68493;HTU21D;55483;51.106;5.984;2023-09-19T11:09:04;27.57;42.93
68493;HTU21D;55483;51.106;5.984;2023-09-19T11:30:42;28.82;37.73
68493;HTU21D;55483;51.106;5.984;2023-09-19T11:33:30;28.52;40.46
68493;HTU21D;55483;51.106;5.984;2023-09-19T11:46:52;29.23;38.44
68493;HTU21D;55483;51.106;5.984;2023-09-19T11:49:21;29.02;38.61
68493;HTU21D;55483;51.106;5.984;2023-09-19T11:51:51;29.05;38.42
68493;HTU21D;55483;51.106;5.984;2023-09-19T11:54:17;28.77;38.69
68493;HTU21D;55483;51.106;5.984;2023-09-19T11:56:44;28.88;39.43
68493;HTU21D;55483;51.106;5.984;2023-09-19T11:59:11;29.07;39.04
68493;HTU21D;55483;51.106;5.984;2023-09-19T12:01:43;29.26;38.17
68493;HTU21D;55483;51.106;5.984;2023-09-19T12:04:18;29.35;37.55
68493;HTU21D;55483;51.106;5.984;2023-09-19T12:06:56;29.19;38.15
68493;HTU21D;55483;51.106;5.984;2023-09-19T12:09:22;29.07;38.14
68493;HTU21D;55483;51.106;5.984;2023-09-19T12:11:48;29.11;38.11
68493;HTU21D;55483;51.106;5.984;2023-09-19T12:14:26;29.29;37.40
68493;HTU21D;55483;51.106;5.984;2023-09-19T12:16:54;29.29;37.33
68493;HTU21D;55483;51.106;5.984;2023-09-19T12:19:22;29.16;37.86
68493;HTU21D;55483;51.106;5.984;2023-09-19T12:22:14;29.28;38.29
68493;HTU21D;55483;51.106;5.984;2023-09-19T12:24:39;29.02;37.99
68493;HTU21D;55483;51.106;5.984;2023-09-19T12:27:07;28.23;38.63
68493;HTU21D;55483;51.106;5.984;2023-09-19T12:29:48;28.11;40.48
68493;HTU21D;55483;51.106;5.984;2023-09-19T12:32:36;28.20;39.91
68493;HTU21D;55483;51.106;5.984;2023-09-19T12:35:06;28.05;40.66
68493;HTU21D;55483;51.106;5.984;2023-09-19T12:37:37;27.76;40.89
68493;HTU21D;55483;51.106;5.984;2023-09-19T12:40:08;27.52;41.36
68493;HTU21D;55483;51.106;5.984;2023-09-19T12:42:48;27.40;41.80
68493;HTU21D;55483;51.106;5.984;2023-09-19T12:45:15;27.21;41.97
68493;HTU21D;55483;51.106;5.984;2023-09-19T12:48:17;27.13;42.61
68493;HTU21D;55483;51.106;5.984;2023-09-19T12:51:02;27.34;42.87
68493;HTU21D;55483;51.106;5.984;2023-09-19T12:53:45;27.28;42.02
68493;HTU21D;55483;51.106;5.984;2023-09-19T12:56:16;27.08;42.72
68493;HTU21D;55483;51.106;5.984;2023-09-19T12:58:55;26.99;43.50
68493;HTU21D;55483;51.106;5.984;2023-09-19T13:01:23;26.94;43.44
68493;HTU21D;55483;51.106;5.984;2023-09-19T13:04:18;26.71;43.67
68493;HTU21D;55483;51.106;5.984;2023-09-19T13:06:49;26.60;44.09
68493;HTU21D;55483;51.106;5.984;2023-09-19T13:09:18;26.38;44.58
68493;HTU21D;55483;51.106;5.984;2023-09-19T13:11:46;25.97;45.43
68493;HTU21D;55483;51.106;5.984;2023-09-19T13:17:08;25.66;46.71
68493;HTU21D;55483;51.106;5.984;2023-09-19T13:19:50;25.44;47.09
68493;HTU21D;55483;51.106;5.984;2023-09-19T13:25:16;25.13;47.99
68493;HTU21D;55483;51.106;5.984;2023-09-19T13:27:48;24.92;48.05
68493;HTU21D;55483;51.106;5.984;2023-09-19T13:30:17;24.66;48.70
68493;HTU21D;55483;51.106;5.984;2023-09-19T13:32:43;24.46;49.35
68493;HTU21D;55483;51.106;5.984;2023-09-19T13:35:10;24.49;50.24
68493;HTU21D;55483;51.106;5.984;2023-09-19T13:37:38;24.64;50.27
68493;HTU21D;55483;51.106;5.984;2023-09-19T13:40:15;24.60;49.84
68493;HTU21D;55483;51.106;5.984;2023-09-19T13:42:41;24.51;50.02
68493;HTU21D;55483;51.106;5.984;2023-09-19T13:45:08;24.57;50.28
68493;HTU21D;55483;51.106;5.984;2023-09-19T13:47:37;24.39;50.34
68493;HTU21D;55483;51.106;5.984;2023-09-19T13:50:04;24.32;50.65
68493;HTU21D;55483;51.106;5.984;2023-09-19T13:52:31;24.36;51.01
68493;HTU21D;55483;51.106;5.984;2023-09-19T13:54:57;24.44;50.89
68493;HTU21D;55483;51.106;5.984;2023-09-19T13:57:26;24.47;50.39
68493;HTU21D;55483;51.106;5.984;2023-09-19T13:59:53;24.30;50.48
68493;HTU21D;55483;51.106;5.984;2023-09-19T14:02:20;24.25;50.65
68493;HTU21D;55483;51.106;5.984;2023-09-19T14:04:51;24.08;51.17
68493;HTU21D;55483;51.106;5.984;2023-09-19T14:07:16;23.99;51.75
68493;HTU21D;55483;51.106;5.984;2023-09-19T14:09:43;24.04;52.03
68493;HTU21D;55483;51.106;5.984;2023-09-19T14:12:08;24.03;52.24
68493;HTU21D;55483;51.106;5.984;2023-09-19T14:14:34;23.90;52.94
68493;HTU21D;55483;51.106;5.984;2023-09-19T14:17:00;23.90;53.10
68493;HTU21D;55483;51.106;5.984;2023-09-19T14:19:29;23.88;52.91
68493;HTU21D;55483;51.106;5.984;2023-09-19T14:21:55;23.86;53.07
68493;HTU21D;55483;51.106;5.984;2023-09-19T14:24:21;23.73;53.07
68493;HTU21D;55483;51.106;5.984;2023-09-19T14:26:47;23.68;53.12
68493;HTU21D;55483;51.106;5.984;2023-09-19T14:29:13;23.56;53.66
68493;HTU21D;55483;51.106;5.984;2023-09-19T14:31:39;23.51;53.84
68493;HTU21D;55483;51.106;5.984;2023-09-19T14:34:06;23.40;53.62
68493;HTU21D;55483;51.106;5.984;2023-09-19T14:36:31;23.30;54.12
68493;HTU21D;55483;51.106;5.984;2023-09-19T14:38:58;23.26;54.42
68493;HTU21D;55483;51.106;5.984;2023-09-19T14:41:25;23.26;54.77
68493;HTU21D;55483;51.106;5.984;2023-09-19T14:43:54;23.21;54.66
68493;HTU21D;55483;51.106;5.984;2023-09-19T14:46:23;23.00;54.96
68493;HTU21D;55483;51.106;5.984;2023-09-19T14:48:51;22.88;55.57
68493;HTU21D;55483;51.106;5.984;2023-09-19T14:51:17;22.85;55.96
68493;HTU21D;55483;51.106;5.984;2023-09-19T14:53:45;22.90;56.43
68493;HTU21D;55483;51.106;5.984;2023-09-19T14:56:11;22.97;56.45
68493;HTU21D;55483;51.106;5.984;2023-09-19T14:58:38;23.03;56.09
68493;HTU21D;55483;51.106;5.984;2023-09-19T15:01:08;23.08;56.58
68493;HTU21D;55483;51.106;5.984;2023-09-19T15:03:36;22.93;57.31
68493;HTU21D;55483;51.106;5.984;2023-09-19T15:06:03;22.88;57.67
68493;HTU21D;55483;51.106;5.984;2023-09-19T15:08:37;22.73;58.22
68493;HTU21D;55483;51.106;5.984;2023-09-19T15:11:09;22.65;58.09
68493;HTU21D;55483;51.106;5.984;2023-09-19T15:13:36;22.66;58.13
68493;HTU21D;55483;51.106;5.984;2023-09-19T15:16:08;22.72;58.16
68493;HTU21D;55483;51.106;5.984;2023-09-19T15:18:35;22.90;57.94
68493;HTU21D;55483;51.106;5.984;2023-09-19T15:21:10;22.98;58.04
68493;HTU21D;55483;51.106;5.984;2023-09-19T15:23:37;23.05;57.83
68493;HTU21D;55483;51.106;5.984;2023-09-19T15:26:04;23.12;57.25
68493;HTU21D;55483;51.106;5.984;2023-09-19T15:28:31;23.18;56.95
68493;HTU21D;55483;51.106;5.984;2023-09-19T15:31:03;23.25;56.36
68493;HTU21D;55483;51.106;5.984;2023-09-19T15:33:32;23.21;56.39
68493;HTU21D;55483;51.106;5.984;2023-09-19T15:36:09;23.06;57.10
68493;HTU21D;55483;51.106;5.984;2023-09-19T15:38:55;22.93;57.38
68493;HTU21D;55483;51.106;5.984;2023-09-19T15:41:31;22.82;57.84
68493;HTU21D;55483;51.106;5.984;2023-09-19T15:43:59;22.77;58.32
68493;HTU21D;55483;51.106;5.984;2023-09-19T15:46:27;22.70;58.56
68493;HTU21D;55483;51.106;5.984;2023-09-19T15:48:53;22.67;58.76
68493;HTU21D;55483;51.106;5.984;2023-09-19T15:51:19;22.62;58.99
68493;HTU21D;55483;51.106;5.984;2023-09-19T15:53:48;22.56;59.54
68493;HTU21D;55483;51.106;5.984;2023-09-19T15:56:18;22.55;59.43
68493;HTU21D;55483;51.106;5.984;2023-09-19T15:58:45;22.55;59.51
68493;HTU21D;55483;51.106;5.984;2023-09-19T16:01:11;22.60;59.24
68493;HTU21D;55483;51.106;5.984;2023-09-19T16:03:39;22.60;59.32
68493;HTU21D;55483;51.106;5.984;2023-09-19T16:06:15;22.58;59.25
68493;HTU21D;55483;51.106;5.984;2023-09-19T16:08:42;22.43;59.60
68493;HTU21D;55483;51.106;5.984;2023-09-19T16:11:09;22.25;60.27
68493;HTU21D;55483;51.106;5.984;2023-09-19T16:13:36;22.13;60.76
68493;HTU21D;55483;51.106;5.984;2023-09-19T16:16:01;22.06;61.33
68493;HTU21D;55483;51.106;5.984;2023-09-19T16:18:27;21.94;61.25
68493;HTU21D;55483;51.106;5.984;2023-09-19T16:20:52;21.88;61.61
68493;HTU21D;55483;51.106;5.984;2023-09-19T16:23:18;21.83;61.86
68493;HTU21D;55483;51.106;5.984;2023-09-19T16:25:46;21.80;61.91
68493;HTU21D;55483;51.106;5.984;2023-09-19T16:28:13;21.76;61.89